< < Back
Terminal Aerodrome Forecast


Current Version              Previous Versions:   1  2  3  4  5  6  7  8  9  

Terminal Aerodrome Forecast

203
FTUS44 KOHX 262300
TAFBNA
TAF
KBNA 262320Z 2700/2724 33011KT P6SM BKN025 OVC050
     FM271200 01009KT P6SM OVC035=



Latest METAR

249
SAUS70 KWBC 270600 RRL
MTRBNA
METAR KBNA 270553Z 33011KT 10SM OVC025 M03/M09 A3036 RMK AO2 SLP284
T10331089 10011 21033 400781033 53009


USA.gov is the U.S. government's official web portal to all federal, state and local government web resources and services.